Time;durP1;ratioP1;P1;durP2;ratioP2;P2;SDS_P1;SDS_P2;PMS_P1;PMS_P2;Temp;Humidity;BMP_temperature;BMP_pressure;BME280_temperature;BME280_humidity;BME280_pressure;Samples;Min_cycle;Max_cycle;Signal;HPM_P1;HPM_P2
2022/01/29 00:00:48;;;;;;;47.23;29.00;;;;;;;;;;5021380;28;20544;-79
2022/01/29 00:03:14;;;;;;;57.13;32.00;;;;;;;;;;5021860;28;20954;-79
2022/01/29 00:05:41;;;;;;;65.43;35.77;;;;;;;;;;5023124;28;20906;-79
2022/01/29 00:08:07;;;;;;;60.13;33.57;;;;;;;;;;5021856;28;20513;-79
2022/01/29 00:10:35;;;;;;;56.30;34.90;;;;;;;;;;5024612;28;21028;-80
2022/01/29 00:13:01;;;;;;;58.83;33.30;;;;;;;;;;5024097;28;20477;-81
2022/01/29 00:15:27;;;;;;;67.30;35.60;;;;;;;;;;5025202;28;20480;-81
2022/01/29 00:17:53;;;;;;;57.37;32.30;;;;;;;;;;5024479;28;20865;-81
2022/01/29 00:20:20;;;;;;;58.77;33.17;;;;;;;;;;5024763;28;20998;-81
2022/01/29 00:22:46;;;;;;;60.30;35.07;;;;;;;;;;5026235;28;20510;-81
2022/01/29 00:25:12;;;;;;;60.20;34.67;;;;;;;;;;5023290;28;21195;-81
2022/01/29 00:27:40;;;;;;;65.00;36.23;;;;;;;;;;5025030;28;20833;-81
2022/01/29 00:30:07;;;;;;;67.87;35.03;;;;;;;;;;5024442;28;20607;-78
2022/01/29 00:32:34;;;;;;;66.13;37.00;;;;;;;;;;5025891;28;20465;-81
2022/01/29 00:35:00;;;;;;;63.47;35.57;;;;;;;;;;5023138;28;20519;-79
2022/01/29 00:37:26;;;;;;;74.40;35.67;;;;;;;;;;5023933;28;20553;-79
2022/01/29 00:39:53;;;;;;;69.97;37.20;;;;;;;;;;5023347;28;20536;-79
2022/01/29 00:42:19;;;;;;;61.20;36.00;;;;;;;;;;5022370;28;20474;-79
2022/01/29 00:44:47;;;;;;;68.80;38.60;;;;;;;;;;5019965;28;20863;-79
2022/01/29 00:47:13;;;;;;;73.73;39.73;;;;;;;;;;5022438;28;20453;-79
2022/01/29 00:49:39;;;;;;;73.57;40.43;;;;;;;;;;5021102;28;20607;-79
2022/01/29 00:52:06;;;;;;;76.27;38.77;;;;;;;;;;5021844;28;20449;-79
2022/01/29 00:54:32;;;;;;;81.00;41.27;;;;;;;;;;5021988;28;21076;-79
2022/01/29 00:56:58;;;;;;;83.20;44.80;;;;;;;;;;5023087;28;20851;-79
2022/01/29 00:59:24;;;;;;;84.87;42.90;;;;;;;;;;5021378;28;21017;-79
2022/01/29 01:01:52;;;;;;;90.57;42.90;;;;;;;;;;5021090;28;20464;-79
2022/01/29 01:04:18;;;;;;;77.10;41.87;;;;;;;;;;5021543;28;20739;-79
2022/01/29 01:06:45;;;;;;;87.67;42.13;;;;;;;;;;5021341;28;20531;-79
2022/01/29 01:09:11;;;;;;;82.83;43.33;;;;;;;;;;5021366;28;20531;-79
2022/01/29 01:11:37;;;;;;;79.87;41.77;;;;;;;;;;5020787;28;20512;-79
2022/01/29 01:14:04;;;;;;;88.27;43.40;;;;;;;;;;5021620;28;21094;-79
2022/01/29 01:16:30;;;;;;;94.33;45.97;;;;;;;;;;5020484;28;20542;-77
2022/01/29 01:18:57;;;;;;;85.67;44.07;;;;;;;;;;5021865;28;20468;-79
2022/01/29 01:21:24;;;;;;;89.57;44.80;;;;;;;;;;5020574;28;20503;-78
2022/01/29 01:23:50;;;;;;;88.13;44.20;;;;;;;;;;5020188;28;20453;-80
2022/01/29 01:26:16;;;;;;;89.53;45.10;;;;;;;;;;5021390;28;20476;-79
2022/01/29 01:28:42;;;;;;;103.60;46.60;;;;;;;;;;5021845;28;20489;-78
2022/01/29 01:31:08;;;;;;;98.07;45.70;;;;;;;;;;5020452;28;20531;-79
2022/01/29 01:33:35;;;;;;;93.50;45.93;;;;;;;;;;5021052;28;20463;-79
2022/01/29 01:36:05;;;;;;;91.30;46.37;;;;;;;;;;5020193;28;20895;-77
2022/01/29 01:38:39;;;;;;;102.70;50.27;;;;;;;;;;5021994;28;20546;-79
2022/01/29 01:41:09;;;;;;;107.87;48.73;;;;;;;;;;5020299;28;20483;-80
2022/01/29 01:43:35;;;;;;;100.60;46.73;;;;;;;;;;5021434;28;20457;-80
2022/01/29 01:46:01;;;;;;;95.30;48.47;;;;;;;;;;5020283;28;20481;-79
2022/01/29 01:48:28;;;;;;;103.33;48.13;;;;;;;;;;5022164;28;20522;-79
2022/01/29 01:50:55;;;;;;;88.30;45.93;;;;;;;;;;5019878;28;20532;-79
2022/01/29 01:53:22;;;;;;;91.57;47.37;;;;;;;;;;5019797;28;20508;-79
2022/01/29 01:55:49;;;;;;;88.60;49.47;;;;;;;;;;5020449;28;20477;-79
2022/01/29 01:58:15;;;;;;;95.43;49.47;;;;;;;;;;5021585;28;20452;-79
2022/01/29 02:00:41;;;;;;;101.10;48.90;;;;;;;;;;5020557;28;20991;-79
2022/01/29 02:03:08;;;;;;;93.93;49.60;;;;;;;;;;5021703;28;20480;-79
2022/01/29 02:05:35;;;;;;;101.53;51.23;;;;;;;;;;5020691;28;20476;-80
2022/01/29 02:08:02;;;;;;;102.80;51.33;;;;;;;;;;5021056;28;20491;-79
2022/01/29 02:10:30;;;;;;;108.50;54.70;;;;;;;;;;5035757;23;20485;-84
2022/01/29 02:13:00;;;;;;;114.50;50.93;;;;;;;;;;5000237;28;20472;-82
2022/01/29 02:15:27;;;;;;;100.00;49.90;;;;;;;;;;5000063;28;20481;-82
2022/01/29 02:17:53;;;;;;;102.60;51.27;;;;;;;;;;5000608;28;20490;-81
2022/01/29 02:20:21;;;;;;;107.77;52.53;;;;;;;;;;5000579;28;20489;-82
2022/01/29 02:22:49;;;;;;;105.83;51.70;;;;;;;;;;4999221;28;20453;-83
2022/01/29 02:25:28;;;;;;;114.60;53.60;;;;;;;;;;4999745;28;20481;-83
2022/01/29 02:27:54;;;;;;;101.77;50.60;;;;;;;;;;4999984;28;20449;-84
2022/01/29 02:30:20;;;;;;;104.70;53.40;;;;;;;;;;4999270;28;20489;-84
2022/01/29 02:32:47;;;;;;;110.23;54.63;;;;;;;;;;5000786;28;20462;-83
2022/01/29 02:35:13;;;;;;;108.53;51.17;;;;;;;;;;5001523;28;20470;-85
2022/01/29 02:37:39;;;;;;;105.00;49.13;;;;;;;;;;5004902;28;20489;-82
2022/01/29 02:40:08;;;;;;;100.33;49.30;;;;;;;;;;5002841;28;20474;-83
2022/01/29 02:42:34;;;;;;;106.40;50.20;;;;;;;;;;5002426;28;20470;-83
2022/01/29 02:45:00;;;;;;;102.53;52.27;;;;;;;;;;5004034;28;20474;-81
2022/01/29 02:47:30;;;;;;;115.33;49.63;;;;;;;;;;5004453;28;20537;-84
2022/01/29 02:49:56;;;;;;;110.33;51.17;;;;;;;;;;5003448;28;20477;-83
2022/01/29 02:52:23;;;;;;;100.60;50.67;;;;;;;;;;5003640;28;20452;-82
2022/01/29 02:54:49;;;;;;;109.20;52.43;;;;;;;;;;5003194;28;20536;-82
2022/01/29 02:57:18;;;;;;;106.10;48.03;;;;;;;;;;5003418;28;20529;-82
2022/01/29 02:59:44;;;;;;;103.77;50.60;;;;;;;;;;5001788;28;20528;-82
2022/01/29 03:02:10;;;;;;;106.27;51.40;;;;;;;;;;5004003;28;21032;-81
2022/01/29 03:04:37;;;;;;;105.17;45.50;;;;;;;;;;5004272;28;20547;-81
2022/01/29 03:07:03;;;;;;;94.77;47.00;;;;;;;;;;5003360;28;20449;-82
2022/01/29 03:09:29;;;;;;;94.70;50.70;;;;;;;;;;5003203;28;20465;-81
2022/01/29 03:11:57;;;;;;;91.70;46.50;;;;;;;;;;5004338;28;20489;-83
2022/01/29 03:14:24;;;;;;;102.97;47.90;;;;;;;;;;5002754;28;20473;-83
2022/01/29 03:16:51;;;;;;;87.20;46.10;;;;;;;;;;5002535;28;20490;-81
2022/01/29 03:19:17;;;;;;;88.20;45.83;;;;;;;;;;5003485;28;20469;-82
2022/01/29 03:21:43;;;;;;;90.73;46.73;;;;;;;;;;5000645;28;20475;-84
2022/01/29 03:24:09;;;;;;;92.03;47.27;;;;;;;;;;5002763;28;20458;-82
2022/01/29 03:26:36;;;;;;;82.40;43.63;;;;;;;;;;5002956;28;20810;-82
2022/01/29 03:29:02;;;;;;;87.90;46.27;;;;;;;;;;5002070;28;20894;-82
2022/01/29 03:31:29;;;;;;;89.07;45.77;;;;;;;;;;5003195;28;20481;-82
2022/01/29 03:33:56;;;;;;;95.90;45.80;;;;;;;;;;5001677;28;20447;-81
2022/01/29 03:36:22;;;;;;;74.67;41.60;;;;;;;;;;5001361;28;20453;-81
2022/01/29 03:38:48;;;;;;;81.50;42.60;;;;;;;;;;5002518;28;20446;-81
2022/01/29 03:41:15;;;;;;;86.97;44.10;;;;;;;;;;5001564;28;20494;-83
2022/01/29 03:43:45;;;;;;;84.03;44.43;;;;;;;;;;5002765;28;20454;-83
2022/01/29 03:46:11;;;;;;;86.10;43.40;;;;;;;;;;5002537;28;20524;-83
2022/01/29 03:48:38;;;;;;;82.63;42.33;;;;;;;;;;5003936;28;20496;-83
2022/01/29 03:51:05;;;;;;;87.63;43.70;;;;;;;;;;5001792;28;20481;-83
2022/01/29 03:53:31;;;;;;;73.17;39.97;;;;;;;;;;5003816;28;20508;-82
2022/01/29 03:55:57;;;;;;;88.57;43.90;;;;;;;;;;5001760;28;20502;-83
2022/01/29 03:58:24;;;;;;;79.57;41.00;;;;;;;;;;5003006;28;20486;-83
2022/01/29 04:00:50;;;;;;;78.67;40.90;;;;;;;;;;5002004;28;21064;-83
2022/01/29 04:03:17;;;;;;;81.67;41.13;;;;;;;;;;5002909;28;20458;-83
2022/01/29 04:05:44;;;;;;;82.73;40.50;;;;;;;;;;5002381;28;21080;-83
2022/01/29 04:08:15;;;;;;;72.10;37.73;;;;;;;;;;5002637;28;20588;-81
2022/01/29 04:10:42;;;;;;;78.57;40.70;;;;;;;;;;5002131;28;20482;-80
2022/01/29 04:13:10;;;;;;;72.20;39.37;;;;;;;;;;5002035;28;20457;-83
2022/01/29 04:15:36;;;;;;;78.43;45.40;;;;;;;;;;5001876;28;20565;-84
2022/01/29 04:18:03;;;;;;;73.13;40.50;;;;;;;;;;5002263;28;20492;-81
2022/01/29 04:20:29;;;;;;;74.67;38.40;;;;;;;;;;5002670;28;20536;-84
2022/01/29 04:22:57;;;;;;;68.07;37.83;;;;;;;;;;5002299;28;20501;-82
2022/01/29 04:25:23;;;;;;;76.00;39.13;;;;;;;;;;5002199;28;20478;-85
2022/01/29 04:27:50;;;;;;;76.10;40.07;;;;;;;;;;5001771;28;20456;-82
2022/01/29 04:30:28;;;;;;;79.00;41.00;;;;;;;;;;5000285;28;20486;-83
2022/01/29 04:33:01;;;;;;;83.17;42.77;;;;;;;;;;5002592;28;20453;-81
2022/01/29 04:35:28;;;;;;;85.10;39.53;;;;;;;;;;5002659;28;20476;-83
2022/01/29 04:37:54;;;;;;;83.27;41.87;;;;;;;;;;5001388;28;20493;-82
2022/01/29 04:40:22;;;;;;;79.60;38.37;;;;;;;;;;5001361;28;20535;-82
2022/01/29 04:42:48;;;;;;;68.77;37.00;;;;;;;;;;5001260;28;20458;-82
2022/01/29 04:45:15;;;;;;;67.80;37.27;;;;;;;;;;5000315;28;20485;-80
2022/01/29 04:47:41;;;;;;;76.13;39.53;;;;;;;;;;4999180;28;20496;-82
2022/01/29 04:50:07;;;;;;;77.30;41.53;;;;;;;;;;5001468;28;20502;-81
2022/01/29 04:52:34;;;;;;;75.60;39.97;;;;;;;;;;5000384;28;20585;-81
2022/01/29 04:55:00;;;;;;;74.47;39.63;;;;;;;;;;5001654;28;20481;-82
2022/01/29 04:57:27;;;;;;;84.90;40.77;;;;;;;;;;4999996;28;20516;-82
2022/01/29 04:59:54;;;;;;;75.43;39.10;;;;;;;;;;5001248;28;20519;-82
2022/01/29 05:02:20;;;;;;;76.87;38.47;;;;;;;;;;5002156;28;20478;-81
2022/01/29 05:04:46;;;;;;;76.07;37.47;;;;;;;;;;5001132;28;20508;-81
2022/01/29 05:07:12;;;;;;;72.20;36.20;;;;;;;;;;5000597;28;20500;-83
2022/01/29 05:09:38;;;;;;;78.97;37.70;;;;;;;;;;5000613;28;20886;-83
2022/01/29 05:12:05;;;;;;;78.90;40.77;;;;;;;;;;5001882;28;20490;-81
2022/01/29 05:14:40;;;;;;;84.53;38.60;;;;;;;;;;5001045;28;20482;-82
2022/01/29 05:26:49;;;;;;;82.87;37.30;;;;;;;;;;5000612;28;20504;-83
2022/01/29 05:28:15;;;;;;;61.90;34.73;;;;;;;;;;5002743;28;21025;-83
2022/01/29 05:30:43;;;;;;;70.77;36.80;;;;;;;;;;5001176;28;20486;-81
2022/01/29 05:33:09;;;;;;;68.60;35.33;;;;;;;;;;5002626;28;20446;-81
2022/01/29 05:35:35;;;;;;;75.90;36.07;;;;;;;;;;5001441;28;20478;-84
2022/01/29 05:38:02;;;;;;;74.40;36.57;;;;;;;;;;5001599;28;20497;-85
2022/01/29 05:40:28;;;;;;;74.40;34.50;;;;;;;;;;5001631;28;20564;-81
2022/01/29 05:42:54;;;;;;;71.90;36.10;;;;;;;;;;4999284;28;21075;-81
2022/01/29 05:45:20;;;;;;;70.07;34.03;;;;;;;;;;5002829;28;20905;-83
2022/01/29 05:47:48;;;;;;;74.93;34.90;;;;;;;;;;4998695;28;20963;-82
2022/01/29 05:50:14;;;;;;;75.00;34.50;;;;;;;;;;5001532;28;20488;-84
2022/01/29 05:52:40;;;;;;;68.53;36.70;;;;;;;;;;4999091;28;20457;-80
2022/01/29 05:55:07;;;;;;;69.77;33.40;;;;;;;;;;5001158;28;20488;-83
2022/01/29 05:57:33;;;;;;;66.03;34.90;;;;;;;;;;4999982;28;20494;-80
2022/01/29 06:00:00;;;;;;;71.93;35.87;;;;;;;;;;4997208;28;21010;-84
2022/01/29 06:02:26;;;;;;;81.40;35.27;;;;;;;;;;5001574;28;20470;-82
2022/01/29 06:04:53;;;;;;;69.30;34.23;;;;;;;;;;5000513;28;20541;-83
2022/01/29 06:07:20;;;;;;;66.63;33.17;;;;;;;;;;5001533;28;20457;-82
2022/01/29 06:09:47;;;;;;;73.63;33.57;;;;;;;;;;5001526;28;21205;-83
2022/01/29 06:12:14;;;;;;;65.77;35.43;;;;;;;;;;5005080;28;20474;-81
2022/01/29 06:14:40;;;;;;;64.30;33.47;;;;;;;;;;5004993;28;20505;-82
2022/01/29 06:17:06;;;;;;;63.53;32.37;;;;;;;;;;5005445;28;20504;-82
2022/01/29 06:19:33;;;;;;;68.07;33.40;;;;;;;;;;5002178;28;20477;-82
2022/01/29 06:22:06;;;;;;;62.27;33.40;;;;;;;;;;5005248;28;20827;-81
2022/01/29 06:24:32;;;;;;;67.23;33.47;;;;;;;;;;5004648;28;20478;-82
2022/01/29 06:26:59;;;;;;;68.30;36.77;;;;;;;;;;5004471;28;20501;-82
2022/01/29 06:29:25;;;;;;;63.47;34.50;;;;;;;;;;5002325;28;20485;-81
2022/01/29 06:31:51;;;;;;;71.80;34.00;;;;;;;;;;5004174;28;21207;-80
2022/01/29 06:34:17;;;;;;;65.57;33.60;;;;;;;;;;5004310;28;20493;-84
2022/01/29 06:36:43;;;;;;;65.93;30.70;;;;;;;;;;5002863;28;20468;-81
2022/01/29 06:39:11;;;;;;;66.10;33.40;;;;;;;;;;5003218;28;20489;-84
2022/01/29 06:41:38;;;;;;;60.67;31.57;;;;;;;;;;5004499;28;20477;-83
2022/01/29 06:44:04;;;;;;;58.60;30.60;;;;;;;;;;5003113;28;20457;-85
2022/01/29 06:46:30;;;;;;;57.13;31.30;;;;;;;;;;5004913;28;20453;-84
2022/01/29 06:48:56;;;;;;;51.97;27.77;;;;;;;;;;5004105;28;20458;-83
2022/01/29 06:51:22;;;;;;;61.37;32.60;;;;;;;;;;5004533;28;20478;-83
2022/01/29 06:53:49;;;;;;;47.37;27.10;;;;;;;;;;5005110;28;20449;-82
2022/01/29 06:56:16;;;;;;;56.90;28.67;;;;;;;;;;5003754;28;20540;-84
2022/01/29 06:58:42;;;;;;;53.57;27.43;;;;;;;;;;5002644;28;20482;-81
2022/01/29 07:01:09;;;;;;;51.90;26.60;;;;;;;;;;5003784;28;20481;-83
2022/01/29 07:03:35;;;;;;;53.73;27.20;;;;;;;;;;5002013;28;20457;-81
2022/01/29 07:06:04;;;;;;;50.20;26.70;;;;;;;;;;5004880;28;20532;-82
2022/01/29 07:08:30;;;;;;;47.50;25.47;;;;;;;;;;5003789;28;20513;-82
2022/01/29 07:10:56;;;;;;;44.33;23.90;;;;;;;;;;5005120;28;20485;-81
2022/01/29 07:13:25;;;;;;;40.80;24.60;;;;;;;;;;5004604;28;20473;-82
2022/01/29 07:15:52;;;;;;;42.50;22.97;;;;;;;;;;5003120;28;20488;-81
2022/01/29 07:18:18;;;;;;;45.27;25.50;;;;;;;;;;5001669;28;20481;-82
2022/01/29 07:20:46;;;;;;;40.33;22.97;;;;;;;;;;5002779;28;20524;-83
2022/01/29 07:23:12;;;;;;;34.03;21.03;;;;;;;;;;5001360;28;21013;-83
2022/01/29 07:25:38;;;;;;;40.30;19.07;;;;;;;;;;5003763;28;20478;-81
2022/01/29 07:28:04;;;;;;;40.47;22.67;;;;;;;;;;5001248;28;20466;-82
2022/01/29 07:30:32;;;;;;;36.53;21.60;;;;;;;;;;5003093;28;20485;-82
2022/01/29 07:32:58;;;;;;;42.63;20.93;;;;;;;;;;5002544;28;20890;-83
2022/01/29 07:35:24;;;;;;;36.70;21.43;;;;;;;;;;5001967;28;20547;-81
2022/01/29 07:37:51;;;;;;;33.80;20.60;;;;;;;;;;5003782;28;20495;-81
2022/01/29 07:40:17;;;;;;;37.10;20.53;;;;;;;;;;5002453;28;20473;-82
2022/01/29 07:42:43;;;;;;;32.40;20.30;;;;;;;;;;5002727;28;20450;-82
2022/01/29 07:45:09;;;;;;;34.60;20.20;;;;;;;;;;5004775;28;20536;-82
2022/01/29 07:47:37;;;;;;;34.53;20.80;;;;;;;;;;5003566;28;20450;-82
2022/01/29 07:50:04;;;;;;;36.43;20.17;;;;;;;;;;5003788;28;20552;-82
2022/01/29 07:52:32;;;;;;;32.50;18.80;;;;;;;;;;5001517;28;20513;-82
2022/01/29 07:54:58;;;;;;;32.63;19.60;;;;;;;;;;5002916;28;20477;-82
2022/01/29 07:57:24;;;;;;;36.17;20.53;;;;;;;;;;5003038;28;20485;-83
2022/01/29 07:59:50;;;;;;;33.37;20.17;;;;;;;;;;5002526;28;20535;-82
2022/01/29 08:02:17;;;;;;;42.10;23.10;;;;;;;;;;5003248;28;20481;-82
2022/01/29 08:04:44;;;;;;;34.47;19.33;;;;;;;;;;5004180;28;20535;-81
2022/01/29 08:07:10;;;;;;;35.43;20.20;;;;;;;;;;5004373;28;20454;-82
2022/01/29 08:09:37;;;;;;;37.40;20.53;;;;;;;;;;5003469;28;20500;-83
2022/01/29 08:12:03;;;;;;;33.60;20.77;;;;;;;;;;5032120;23;20498;-80
2022/01/29 08:14:29;;;;;;;35.23;21.13;;;;;;;;;;5006863;28;20879;-80
2022/01/29 08:16:55;;;;;;;33.07;19.40;;;;;;;;;;5007675;28;20450;-81
2022/01/29 08:19:22;;;;;;;36.47;21.63;;;;;;;;;;5007420;28;20504;-81
2022/01/29 08:21:49;;;;;;;34.37;20.40;;;;;;;;;;5005136;28;20489;-81
2022/01/29 08:24:15;;;;;;;33.70;20.67;;;;;;;;;;5007585;28;20468;-81
2022/01/29 08:26:42;;;;;;;36.27;22.87;;;;;;;;;;5008131;28;20453;-79
2022/01/29 08:29:08;;;;;;;33.63;20.40;;;;;;;;;;5007594;28;20493;-79
2022/01/29 08:31:34;;;;;;;35.67;21.27;;;;;;;;;;5006965;28;21000;-80
2022/01/29 08:34:01;;;;;;;35.00;20.50;;;;;;;;;;5006750;28;20449;-81
2022/01/29 08:36:27;;;;;;;40.20;20.80;;;;;;;;;;5006659;28;20469;-80
2022/01/29 08:38:55;;;;;;;34.73;21.03;;;;;;;;;;5007133;28;20494;-82
2022/01/29 08:41:21;;;;;;;36.73;22.00;;;;;;;;;;5007507;28;20513;-81
2022/01/29 08:43:47;;;;;;;42.33;22.20;;;;;;;;;;5007555;28;20446;-80
2022/01/29 08:46:13;;;;;;;34.10;21.50;;;;;;;;;;5005346;28;20916;-80
2022/01/29 08:48:40;;;;;;;37.77;21.97;;;;;;;;;;5006700;28;20439;-80
2022/01/29 08:51:06;;;;;;;31.63;19.97;;;;;;;;;;5006691;28;20465;-81
2022/01/29 08:53:34;;;;;;;44.07;22.10;;;;;;;;;;5008221;28;20455;-80
2022/01/29 08:56:01;;;;;;;33.13;20.93;;;;;;;;;;5004127;28;20470;-81
2022/01/29 08:58:28;;;;;;;34.77;20.77;;;;;;;;;;5006767;28;20489;-80
2022/01/29 09:00:54;;;;;;;31.50;19.33;;;;;;;;;;5006325;28;20479;-78
2022/01/29 09:03:20;;;;;;;34.93;18.87;;;;;;;;;;5005377;28;20461;-81
2022/01/29 09:05:47;;;;;;;30.70;18.63;;;;;;;;;;5004235;28;20470;-80
2022/01/29 09:08:14;;;;;;;25.37;16.90;;;;;;;;;;5001941;28;21014;-81
2022/01/29 09:10:40;;;;;;;32.47;15.27;;;;;;;;;;5004702;28;20905;-80
2022/01/29 09:13:08;;;;;;;24.07;15.83;;;;;;;;;;5003542;28;20914;-80
2022/01/29 09:15:35;;;;;;;29.20;16.27;;;;;;;;;;5004149;28;20474;-81
2022/01/29 09:18:01;;;;;;;27.27;17.17;;;;;;;;;;5004778;28;20449;-81
2022/01/29 09:20:27;;;;;;;25.87;16.43;;;;;;;;;;5004091;28;20544;-81
2022/01/29 09:22:54;;;;;;;27.80;15.40;;;;;;;;;;5004302;28;20568;-80
2022/01/29 09:25:20;;;;;;;23.30;14.67;;;;;;;;;;5003199;28;20467;-80
2022/01/29 09:27:46;;;;;;;21.97;14.77;;;;;;;;;;5004633;28;20462;-81
2022/01/29 09:30:14;;;;;;;27.37;15.43;;;;;;;;;;5004745;28;20505;-80
2022/01/29 09:32:40;;;;;;;25.30;14.00;;;;;;;;;;5003449;28;20478;-81
2022/01/29 09:35:07;;;;;;;22.90;13.87;;;;;;;;;;5004911;28;20485;-80
2022/01/29 09:37:33;;;;;;;23.07;14.67;;;;;;;;;;5005190;28;20953;-78
2022/01/29 09:40:00;;;;;;;21.23;13.07;;;;;;;;;;5004034;28;20478;-78
2022/01/29 09:42:26;;;;;;;21.83;14.13;;;;;;;;;;5002717;28;20837;-82
2022/01/29 09:44:53;;;;;;;20.60;14.10;;;;;;;;;;5003619;28;20482;-81
2022/01/29 09:47:23;;;;;;;21.33;14.00;;;;;;;;;;5003846;28;20509;-80
2022/01/29 09:49:50;;;;;;;20.80;13.83;;;;;;;;;;5003864;28;20466;-80
2022/01/29 09:52:16;;;;;;;18.87;13.30;;;;;;;;;;5004735;28;20854;-79
2022/01/29 09:54:45;;;;;;;16.93;13.00;;;;;;;;;;5004105;28;20481;-78
2022/01/29 09:57:11;;;;;;;21.00;13.60;;;;;;;;;;5005351;28;21033;-80
2022/01/29 09:59:39;;;;;;;19.70;14.80;;;;;;;;;;5001525;28;20505;-80
2022/01/29 10:02:12;;;;;;;18.07;14.00;;;;;;;;;;5003736;28;20894;-80
2022/01/29 10:04:46;;;;;;;21.47;13.27;;;;;;;;;;5003785;28;20478;-80
2022/01/29 10:07:13;;;;;;;21.50;13.87;;;;;;;;;;5003385;28;20902;-80
2022/01/29 10:09:39;;;;;;;21.40;13.93;;;;;;;;;;5002952;28;20858;-80
2022/01/29 10:12:15;;;;;;;19.20;14.73;;;;;;;;;;5005417;28;20483;-80
2022/01/29 10:14:52;;;;;;;19.77;14.30;;;;;;;;;;5004043;28;20475;-80
2022/01/29 10:17:37;;;;;;;20.10;14.93;;;;;;;;;;5002660;28;20469;-80
2022/01/29 10:20:08;;;;;;;21.97;14.60;;;;;;;;;;5001680;28;20489;-79
2022/01/29 10:22:35;;;;;;;25.40;14.60;;;;;;;;;;5002616;28;20469;-78
2022/01/29 10:25:04;;;;;;;22.77;14.00;;;;;;;;;;5004254;28;21089;-78
2022/01/29 10:27:30;;;;;;;21.43;13.90;;;;;;;;;;5001922;28;20461;-79
2022/01/29 10:29:59;;;;;;;25.80;15.60;;;;;;;;;;4999367;28;20528;-79
2022/01/29 10:32:25;;;;;;;26.70;16.30;;;;;;;;;;5000663;28;20466;-79
2022/01/29 10:34:54;;;;;;;17.20;14.77;;;;;;;;;;5001452;28;21077;-78
2022/01/29 10:37:23;;;;;;;20.03;14.20;;;;;;;;;;5000048;28;20469;-79
2022/01/29 10:39:50;;;;;;;23.80;15.57;;;;;;;;;;5003191;28;20473;-79
2022/01/29 10:42:17;;;;;;;22.27;15.27;;;;;;;;;;5002708;28;20465;-79
2022/01/29 10:44:44;;;;;;;22.23;13.40;;;;;;;;;;5003496;28;20486;-79
2022/01/29 10:47:11;;;;;;;21.50;14.70;;;;;;;;;;5001918;28;20467;-80
2022/01/29 10:49:39;;;;;;;30.10;14.60;;;;;;;;;;5001956;28;20477;-78
2022/01/29 10:52:07;;;;;;;20.73;14.17;;;;;;;;;;5002383;28;20557;-78
2022/01/29 10:54:35;;;;;;;20.27;14.40;;;;;;;;;;5001682;28;20500;-79
2022/01/29 10:57:02;;;;;;;19.57;12.67;;;;;;;;;;5006332;28;20459;-80
2022/01/29 10:59:29;;;;;;;19.33;12.77;;;;;;;;;;5006863;28;20528;-80
2022/01/29 11:01:56;;;;;;;18.23;11.60;;;;;;;;;;5005789;28;20505;-78
2022/01/29 11:04:25;;;;;;;23.20;13.20;;;;;;;;;;5006089;28;20473;-79
2022/01/29 11:06:52;;;;;;;19.67;12.60;;;;;;;;;;5006453;28;20457;-79
2022/01/29 11:09:18;;;;;;;24.23;13.77;;;;;;;;;;5005192;28;20994;-79
2022/01/29 11:11:47;;;;;;;19.17;12.87;;;;;;;;;;5005997;28;20473;-78
2022/01/29 11:14:15;;;;;;;20.10;12.20;;;;;;;;;;5003147;28;22597;-78
2022/01/29 11:16:42;;;;;;;12.37;10.20;;;;;;;;;;5006707;28;20458;-76
2022/01/29 11:19:09;;;;;;;14.30;10.87;;;;;;;;;;5005690;28;20485;-79
2022/01/29 11:21:35;;;;;;;14.43;11.37;;;;;;;;;;5005290;28;20478;-79
2022/01/29 11:24:02;;;;;;;11.43;9.60;;;;;;;;;;5004443;28;20887;-79
2022/01/29 11:26:30;;;;;;;12.27;10.90;;;;;;;;;;5004431;28;20461;-79
2022/01/29 11:31:50;;;;;;;10.43;8.77;;;;;;;;;;5140795;27;20548;-79
2022/01/29 11:34:22;;;;;;;14.60;10.27;;;;;;;;;;5127426;27;21260;-79
2022/01/29 11:37:05;;;;;;;12.43;8.53;;;;;;;;;;5060803;28;20523;-79
2022/01/29 11:39:34;;;;;;;13.43;9.97;;;;;;;;;;5065848;28;20586;-80
2022/01/29 11:42:15;;;;;;;15.67;9.47;;;;;;;;;;5081370;28;21001;-79
2022/01/29 11:44:42;;;;;;;13.70;9.40;;;;;;;;;;5063567;28;20512;-79
2022/01/29 11:47:23;;;;;;;19.23;9.00;;;;;;;;;;5082961;28;20454;-79
2022/01/29 11:49:51;;;;;;;10.73;8.97;;;;;;;;;;5080105;28;20477;-80
2022/01/29 11:52:21;;;;;;;14.47;7.50;;;;;;;;;;5082206;28;20462;-79
2022/01/29 11:54:58;;;;;;;15.60;8.97;;;;;;;;;;5081855;28;20542;-78
2022/01/29 11:57:24;;;;;;;10.27;7.87;;;;;;;;;;5079726;28;21007;-79
2022/01/29 11:59:50;;;;;;;11.57;8.87;;;;;;;;;;5085219;28;20470;-79
2022/01/29 12:02:42;;;;;;;12.17;7.70;;;;;;;;;;5082306;28;20473;-80
2022/01/29 12:05:10;;;;;;;8.83;7.70;;;;;;;;;;5081573;28;20482;-81
2022/01/29 12:07:51;;;;;;;9.67;7.77;;;;;;;;;;5084536;28;20507;-80
2022/01/29 12:10:18;;;;;;;9.43;6.90;;;;;;;;;;5082987;28;20470;-79
2022/01/29 12:12:46;;;;;;;9.63;6.90;;;;;;;;;;5083777;28;20477;-79
2022/01/29 12:15:31;;;;;;;13.70;6.50;;;;;;;;;;5082851;28;20481;-79
2022/01/29 12:17:59;;;;;;;8.57;6.40;;;;;;;;;;5082922;28;20458;-80
2022/01/29 12:20:28;;;;;;;11.07;6.23;;;;;;;;;;5082392;28;20470;-79
2022/01/29 12:22:57;;;;;;;8.70;6.77;;;;;;;;;;5083287;28;21069;-80
2022/01/29 12:25:26;;;;;;;9.53;5.80;;;;;;;;;;5083578;27;20475;-80
2022/01/29 12:27:53;;;;;;;8.23;6.47;;;;;;;;;;5084839;28;20522;-80
2022/01/29 12:30:21;;;;;;;9.50;5.70;;;;;;;;;;5080951;28;20476;-80
2022/01/29 12:32:57;;;;;;;10.33;5.97;;;;;;;;;;5078848;28;21019;-80
2022/01/29 12:35:32;;;;;;;8.77;6.63;;;;;;;;;;5080733;28;20474;-80
2022/01/29 12:37:59;;;;;;;11.63;5.47;;;;;;;;;;5078117;28;20968;-77
2022/01/29 12:40:26;;;;;;;9.13;5.10;;;;;;;;;;5080915;28;20463;-79
2022/01/29 12:42:57;;;;;;;8.00;5.30;;;;;;;;;;5073004;28;20482;-79
2022/01/29 12:45:24;;;;;;;8.93;5.20;;;;;;;;;;5070278;28;21015;-80
2022/01/29 12:47:51;;;;;;;12.00;4.80;;;;;;;;;;5070606;28;20447;-80
2022/01/29 12:50:21;;;;;;;7.53;4.73;;;;;;;;;;5068922;28;21025;-80
2022/01/29 12:52:49;;;;;;;7.10;5.00;;;;;;;;;;5070927;28;20503;-79
2022/01/29 12:55:15;;;;;;;5.87;4.67;;;;;;;;;;5071642;28;20565;-80
2022/01/29 12:57:42;;;;;;;9.83;5.77;;;;;;;;;;5069994;28;20886;-80
2022/01/29 13:00:11;;;;;;;9.33;4.73;;;;;;;;;;5069762;28;20488;-80
2022/01/29 13:02:38;;;;;;;5.60;4.30;;;;;;;;;;5068073;28;20494;-80
2022/01/29 13:05:04;;;;;;;8.73;4.50;;;;;;;;;;5069809;28;20583;-80
2022/01/29 13:07:34;;;;;;;6.40;4.73;;;;;;;;;;5072331;28;20452;-79
2022/01/29 13:10:01;;;;;;;6.93;4.70;;;;;;;;;;5070239;28;20471;-80
2022/01/29 13:12:27;;;;;;;7.30;4.63;;;;;;;;;;5067995;28;21110;-80
2022/01/29 13:14:54;;;;;;;9.23;5.10;;;;;;;;;;5067052;28;21065;-79
2022/01/29 13:17:21;;;;;;;5.73;4.03;;;;;;;;;;5069532;28;20443;-78
2022/01/29 13:19:49;;;;;;;8.00;3.77;;;;;;;;;;5069432;28;20471;-81
2022/01/29 13:22:16;;;;;;;11.73;4.63;;;;;;;;;;5068848;28;20479;-79
2022/01/29 13:24:44;;;;;;;9.87;4.87;;;;;;;;;;5068139;28;20841;-77
2022/01/29 13:27:12;;;;;;;7.47;4.20;;;;;;;;;;5070886;28;20455;-80
2022/01/29 13:29:41;;;;;;;8.63;4.80;;;;;;;;;;5067291;28;20494;-80
2022/01/29 13:32:11;;;;;;;7.90;4.40;;;;;;;;;;5068956;28;20483;-80
2022/01/29 13:34:39;;;;;;;5.77;4.40;;;;;;;;;;5069134;28;20463;-80
2022/01/29 13:37:20;;;;;;;11.90;5.30;;;;;;;;;;5069984;28;20517;-80
2022/01/29 13:39:49;;;;;;;13.07;4.37;;;;;;;;;;5068527;28;20528;-80
2022/01/29 13:42:19;;;;;;;7.03;4.57;;;;;;;;;;5069524;28;20503;-80
2022/01/29 13:45:04;;;;;;;5.00;3.60;;;;;;;;;;5069729;28;20474;-81
2022/01/29 13:47:30;;;;;;;9.80;4.40;;;;;;;;;;5067468;28;20452;-80
2022/01/29 13:49:56;;;;;;;7.13;4.30;;;;;;;;;;5068339;28;20472;-80
2022/01/29 13:52:23;;;;;;;9.53;6.00;;;;;;;;;;5065797;28;20490;-80
2022/01/29 13:54:50;;;;;;;6.90;4.13;;;;;;;;;;5066791;28;20522;-80
2022/01/29 13:57:18;;;;;;;9.77;4.37;;;;;;;;;;5068105;28;21007;-80
2022/01/29 13:59:46;;;;;;;6.70;3.77;;;;;;;;;;5063896;28;20505;-79
2022/01/29 14:02:12;;;;;;;8.40;4.07;;;;;;;;;;5062514;28;20598;-79
2022/01/29 14:04:40;;;;;;;9.43;3.73;;;;;;;;;;5062242;28;20474;-80
2022/01/29 14:07:08;;;;;;;10.37;4.27;;;;;;;;;;5066787;28;20471;-81
2022/01/29 14:09:36;;;;;;;8.57;3.50;;;;;;;;;;5065550;28;20467;-80
2022/01/29 14:12:04;;;;;;;8.47;4.00;;;;;;;;;;5067183;28;20490;-80
2022/01/29 14:14:33;;;;;;;7.10;3.93;;;;;;;;;;5065361;22;20500;-82
2022/01/29 14:17:01;;;;;;;14.53;3.80;;;;;;;;;;5022815;28;20460;-84
2022/01/29 14:19:29;;;;;;;7.00;3.10;;;;;;;;;;5017086;28;20970;-82
2022/01/29 14:22:01;;;;;;;11.97;3.97;;;;;;;;;;5019681;28;20512;-83
2022/01/29 14:24:28;;;;;;;10.07;3.10;;;;;;;;;;5020597;28;20483;-84
2022/01/29 14:26:55;;;;;;;12.10;3.40;;;;;;;;;;5020829;28;20468;-81
2022/01/29 14:29:21;;;;;;;7.77;2.90;;;;;;;;;;5020048;28;20497;-83
2022/01/29 14:31:49;;;;;;;11.83;3.47;;;;;;;;;;5021401;28;21017;-85
2022/01/29 14:34:15;;;;;;;10.60;3.83;;;;;;;;;;5019149;28;20484;-84